Time;durP1;ratioP1;P1;durP2;ratioP2;P2;SDS_P1;SDS_P2;PMS_P1;PMS_P2;Temp;Humidity;BMP_temperature;BMP_pressure;BME280_temperature;BME280_humidity;BME280_pressure;Samples;Min_cycle;Max_cycle;Signal;HPM_P1;HPM_P2
2023/10/15 00:00:13;;;;;;;0.40;0.40;;;;;;;;;;6296854;22;20022;-89
2023/10/15 00:02:39;;;;;;;0.40;0.40;;;;;;;;;;6271559;22;20015;-88
2023/10/15 00:05:12;;;;;;;0.40;0.40;;;;;;;;;;6271506;22;20033;-89
2023/10/15 00:07:38;;;;;;;0.40;0.40;;;;;;;;;;6271763;22;20020;-88
2023/10/15 00:10:10;;;;;;;0.40;0.40;;;;;;;;;;6297312;22;20511;-88
2023/10/15 00:13:13;;;;;;;0.32;0.32;;;;;;;;;;6271295;22;20015;-89
2023/10/15 00:15:40;;;;;;;0.40;0.40;;;;;;;;;;6273016;22;20053;-90
2023/10/15 00:18:10;;;;;;;0.30;0.30;;;;;;;;;;6272999;22;20015;-89
2023/10/15 00:20:38;;;;;;;0.40;0.40;;;;;;;;;;6271533;22;20045;-88
2023/10/15 00:23:04;;;;;;;0.35;0.35;;;;;;;;;;6271563;22;20019;-89
2023/10/15 00:25:35;;;;;;;0.30;0.30;;;;;;;;;;6297703;22;20019;-89
2023/10/15 00:28:05;;;;;;;0.30;0.30;;;;;;;;;;6298927;22;20015;-89
2023/10/15 00:30:32;;;;;;;0.40;0.40;;;;;;;;;;6271932;22;20015;-89
2023/10/15 00:32:59;;;;;;;0.40;0.40;;;;;;;;;;6247675;22;20015;-90
2023/10/15 00:35:27;;;;;;;0.40;0.40;;;;;;;;;;6273582;22;20446;-89
2023/10/15 00:37:56;;;;;;;0.50;0.50;;;;;;;;;;6273139;22;20020;-89
2023/10/15 00:40:27;;;;;;;0.40;0.40;;;;;;;;;;6273648;22;20022;-89
2023/10/15 00:42:57;;;;;;;0.40;0.40;;;;;;;;;;6274961;22;20019;-90
2023/10/15 00:45:23;;;;;;;0.40;0.40;;;;;;;;;;6276298;22;20020;-89
2023/10/15 00:50:38;;;;;;;0.32;0.32;;;;;;;;;;6300136;22;20026;-90
2023/10/15 00:53:06;;;;;;;0.40;0.40;;;;;;;;;;6275180;22;20063;-90
2023/10/15 00:55:36;;;;;;;0.30;0.30;;;;;;;;;;6300802;22;20097;-89
2023/10/15 00:58:08;;;;;;;0.40;0.40;;;;;;;;;;6275070;22;20019;-88
2023/10/15 01:00:38;;;;;;;0.30;0.30;;;;;;;;;;6275975;22;20026;-89
2023/10/15 01:03:07;;;;;;;0.35;0.35;;;;;;;;;;6274872;22;20019;-89
2023/10/15 01:05:45;;;;;;;0.40;0.40;;;;;;;;;;6274234;22;20090;-89
2023/10/15 01:08:13;;;;;;;0.25;0.25;;;;;;;;;;6274339;22;20015;-90
2023/10/15 01:10:39;;;;;;;0.47;0.47;;;;;;;;;;6275037;22;20011;-90
2023/10/15 01:13:39;;;;;;;0.30;0.30;;;;;;;;;;6275327;22;20015;-90
2023/10/15 01:16:02;;;;;;;0.20;0.20;;;;;;;;;;6296681;22;20045;-90
2023/10/15 01:18:28;;;;;;;0.30;0.30;;;;;;;;;;6275235;22;20062;-90
2023/10/15 01:20:54;;;;;;;0.40;0.40;;;;;;;;;;6275500;22;20020;-90
2023/10/15 01:23:29;;;;;;;0.40;0.40;;;;;;;;;;6275876;22;20023;-89
2023/10/15 01:26:00;;;;;;;0.32;0.32;;;;;;;;;;6274911;22;20394;-89
2023/10/15 01:28:36;;;;;;;0.32;0.32;;;;;;;;;;6274953;22;20319;-90
2023/10/15 01:31:05;;;;;;;0.30;0.30;;;;;;;;;;6274909;22;20041;-90
2023/10/15 01:33:36;;;;;;;0.40;0.40;;;;;;;;;;6274179;22;20042;-91
2023/10/15 01:36:06;;;;;;;0.40;0.40;;;;;;;;;;6274849;22;20065;-92
2023/10/15 01:38:33;;;;;;;0.40;0.40;;;;;;;;;;6275634;22;20066;-92
2023/10/15 01:41:03;;;;;;;0.40;0.40;;;;;;;;;;6275124;22;20015;-91
2023/10/15 01:43:32;;;;;;;0.30;0.30;;;;;;;;;;6274884;22;20046;-91
2023/10/15 01:46:06;;;;;;;0.30;0.30;;;;;;;;;;6300983;22;20029;-91
2023/10/15 01:48:32;;;;;;;0.40;0.40;;;;;;;;;;6275317;22;20015;-89
2023/10/15 01:51:04;;;;;;;0.40;0.40;;;;;;;;;;6275616;22;20021;-90
2023/10/15 01:53:34;;;;;;;0.40;0.40;;;;;;;;;;6275571;22;20033;-90
2023/10/15 01:56:04;;;;;;;0.32;0.32;;;;;;;;;;6275785;22;20023;-91
2023/10/15 01:58:35;;;;;;;0.32;0.32;;;;;;;;;;6275798;22;20033;-90
2023/10/15 02:01:21;;;;;;;0.28;0.28;;;;;;;;;;6275464;22;20042;-90
2023/10/15 02:03:50;;;;;;;0.30;0.30;;;;;;;;;;6274714;22;20063;-90
2023/10/15 02:06:19;;;;;;;0.40;0.40;;;;;;;;;;6273730;22;20019;-90
2023/10/15 02:08:46;;;;;;;0.32;0.32;;;;;;;;;;6274233;22;20034;-90
2023/10/15 02:11:21;;;;;;;0.40;0.40;;;;;;;;;;6274521;22;20011;-90
2023/10/15 02:13:48;;;;;;;0.40;0.40;;;;;;;;;;6299714;22;20022;-90
2023/10/15 02:16:25;;;;;;;0.30;0.30;;;;;;;;;;6274387;22;20461;-90
2023/10/15 02:18:51;;;;;;;0.40;0.40;;;;;;;;;;6275087;22;20093;-91
2023/10/15 02:21:17;;;;;;;0.40;0.40;;;;;;;;;;6274288;22;20090;-90
2023/10/15 02:23:50;;;;;;;0.38;0.38;;;;;;;;;;6275090;22;20015;-90
2023/10/15 02:26:30;;;;;;;0.40;0.40;;;;;;;;;;6274571;22;20019;-90
2023/10/15 02:29:05;;;;;;;0.30;0.30;;;;;;;;;;6275083;22;20011;-89
2023/10/15 02:31:31;;;;;;;0.30;0.30;;;;;;;;;;6275508;22;20046;-90
2023/10/15 02:33:57;;;;;;;0.30;0.30;;;;;;;;;;6275947;22;20015;-89
2023/10/15 02:36:26;;;;;;;0.50;0.50;;;;;;;;;;6275323;22;20019;-90
2023/10/15 02:38:52;;;;;;;0.40;0.40;;;;;;;;;;6274051;22;20071;-90
2023/10/15 02:41:19;;;;;;;0.40;0.40;;;;;;;;;;6274534;22;20026;-90
2023/10/15 02:43:54;;;;;;;0.40;0.40;;;;;;;;;;6273445;22;20022;-90
2023/10/15 02:48:59;;;;;;;0.30;0.30;;;;;;;;;;6299093;22;20020;-90
2023/10/15 02:51:25;;;;;;;0.40;0.40;;;;;;;;;;6274562;22;20026;-90
2023/10/15 02:54:01;;;;;;;0.30;0.30;;;;;;;;;;6274521;22;20015;-90
2023/10/15 02:56:28;;;;;;;0.40;0.40;;;;;;;;;;6301205;22;20022;-90
2023/10/15 02:58:54;;;;;;;0.30;0.30;;;;;;;;;;6274349;22;20073;-90
2023/10/15 03:01:20;;;;;;;0.30;0.30;;;;;;;;;;6274364;22;20025;-89
2023/10/15 03:03:50;;;;;;;0.40;0.40;;;;;;;;;;6274819;22;20016;-90
2023/10/15 03:06:18;;;;;;;0.50;0.50;;;;;;;;;;6249246;22;20007;-90
2023/10/15 03:08:48;;;;;;;0.40;0.40;;;;;;;;;;6274000;22;20017;-89
2023/10/15 03:11:14;;;;;;;0.50;0.50;;;;;;;;;;6274372;22;20042;-90
2023/10/15 03:16:19;;;;;;;0.40;0.40;;;;;;;;;;6299299;22;20019;-89
2023/10/15 03:18:48;;;;;;;0.40;0.40;;;;;;;;;;6273238;22;20020;-90
2023/10/15 03:21:19;;;;;;;0.32;0.32;;;;;;;;;;6273551;22;20042;-90
2023/10/15 03:23:48;;;;;;;0.40;0.40;;;;;;;;;;6273393;22;20019;-88
2023/10/15 03:26:17;;;;;;;0.30;0.30;;;;;;;;;;6273402;22;20019;-90
2023/10/15 03:28:45;;;;;;;0.40;0.40;;;;;;;;;;6273161;22;20015;-90
2023/10/15 03:31:14;;;;;;;0.40;0.40;;;;;;;;;;6272103;22;20015;-90
2023/10/15 03:33:58;;;;;;;0.40;0.40;;;;;;;;;;6248117;22;20019;-89
2023/10/15 03:36:24;;;;;;;0.40;0.40;;;;;;;;;;6299535;22;20026;-91
2023/10/15 03:38:51;;;;;;;0.30;0.30;;;;;;;;;;6273029;22;20019;-89
2023/10/15 03:41:27;;;;;;;0.35;0.35;;;;;;;;;;6273095;22;20019;-89
2023/10/15 03:43:53;;;;;;;0.40;0.40;;;;;;;;;;6273396;22;20023;-90
2023/10/15 03:46:20;;;;;;;0.40;0.40;;;;;;;;;;6272419;22;20045;-89
2023/10/15 03:48:50;;;;;;;0.40;0.40;;;;;;;;;;6273072;22;20042;-88
2023/10/15 03:51:20;;;;;;;0.50;0.50;;;;;;;;;;6272726;22;20033;-89
2023/10/15 03:53:49;;;;;;;0.30;0.30;;;;;;;;;;6272095;22;20015;-89
2023/10/15 03:56:19;;;;;;;0.40;0.40;;;;;;;;;;6298361;22;20019;-90
2023/10/15 03:58:46;;;;;;;0.30;0.30;;;;;;;;;;6272126;22;20069;-91
2023/10/15 04:01:15;;;;;;;0.40;0.40;;;;;;;;;;6272090;22;20019;-91
2023/10/15 04:03:47;;;;;;;0.40;0.40;;;;;;;;;;6272837;22;20019;-90
2023/10/15 04:06:14;;;;;;;0.40;0.40;;;;;;;;;;6273575;22;20011;-90
2023/10/15 04:08:59;;;;;;;0.30;0.30;;;;;;;;;;6272708;22;20019;-91
2023/10/15 04:11:29;;;;;;;0.30;0.30;;;;;;;;;;6273859;22;20015;-91
2023/10/15 04:13:56;;;;;;;0.40;0.40;;;;;;;;;;6273908;22;20015;-90
2023/10/15 04:16:23;;;;;;;0.40;0.40;;;;;;;;;;6272041;22;20014;-90
2023/10/15 04:18:49;;;;;;;0.50;0.50;;;;;;;;;;6272509;22;20034;-90
2023/10/15 04:21:19;;;;;;;0.50;0.50;;;;;;;;;;6273133;22;20030;-91
2023/10/15 04:23:52;;;;;;;0.40;0.40;;;;;;;;;;6272549;22;20019;-90
2023/10/15 04:26:22;;;;;;;0.40;0.40;;;;;;;;;;6273356;22;20019;-90
2023/10/15 04:28:52;;;;;;;0.40;0.40;;;;;;;;;;6272421;22;20011;-90
2023/10/15 04:31:22;;;;;;;0.40;0.40;;;;;;;;;;6272018;22;20038;-89
2023/10/15 04:33:54;;;;;;;0.40;0.40;;;;;;;;;;6272577;22;20022;-90
2023/10/15 04:36:20;;;;;;;0.30;0.30;;;;;;;;;;6272473;22;20019;-89
2023/10/15 04:38:47;;;;;;;0.40;0.40;;;;;;;;;;6273819;22;20466;-89
2023/10/15 04:41:22;;;;;;;0.40;0.40;;;;;;;;;;6273747;22;20026;-89
2023/10/15 04:43:48;;;;;;;0.30;0.30;;;;;;;;;;6273466;22;20073;-88
2023/10/15 04:46:17;;;;;;;0.35;0.35;;;;;;;;;;6299258;22;20029;-89
2023/10/15 04:48:50;;;;;;;0.40;0.40;;;;;;;;;;6273684;22;20015;-89
2023/10/15 04:59:04;;;;;;;0.40;0.40;;;;;;;;;;6324661;22;20458;-89
2023/10/15 05:01:34;;;;;;;0.40;0.40;;;;;;;;;;6298310;22;20033;-89
2023/10/15 05:04:01;;;;;;;0.40;0.40;;;;;;;;;;6272592;22;20019;-89
2023/10/15 05:06:28;;;;;;;0.40;0.40;;;;;;;;;;6247900;22;20019;-89
2023/10/15 05:08:55;;;;;;;0.50;0.50;;;;;;;;;;6272348;22;20015;-89
2023/10/15 05:11:21;;;;;;;0.40;0.40;;;;;;;;;;6272736;22;20022;-89
2023/10/15 05:13:51;;;;;;;0.40;0.40;;;;;;;;;;6272910;22;20015;-89
2023/10/15 05:16:17;;;;;;;0.40;0.40;;;;;;;;;;6273194;22;20025;-89
2023/10/15 05:18:44;;;;;;;0.40;0.40;;;;;;;;;;6273373;22;19999;-89
2023/10/15 05:21:13;;;;;;;0.30;0.30;;;;;;;;;;6274154;22;20346;-89
2023/10/15 05:23:39;;;;;;;0.40;0.40;;;;;;;;;;6274042;22;20069;-87
2023/10/15 05:26:05;;;;;;;0.40;0.40;;;;;;;;;;6271336;22;20064;-89
2023/10/15 05:28:31;;;;;;;0.30;0.30;;;;;;;;;;6272081;22;20038;-89
2023/10/15 05:30:58;;;;;;;0.38;0.38;;;;;;;;;;6299541;22;20011;-90
2023/10/15 05:33:33;;;;;;;0.45;0.45;;;;;;;;;;6302446;22;20019;-90
2023/10/15 05:35:59;;;;;;;0.40;0.40;;;;;;;;;;6273284;22;20022;-89
2023/10/15 05:38:26;;;;;;;0.30;0.30;;;;;;;;;;6273631;22;20015;-89
2023/10/15 05:40:57;;;;;;;0.40;0.40;;;;;;;;;;6274689;22;20015;-90
2023/10/15 05:43:25;;;;;;;0.50;0.50;;;;;;;;;;6276478;22;20073;-90
2023/10/15 05:45:51;;;;;;;0.40;0.40;;;;;;;;;;6250489;22;20019;-89
2023/10/15 05:48:20;;;;;;;0.47;0.47;;;;;;;;;;6327649;22;20097;-89
2023/10/15 05:50:47;;;;;;;0.40;0.40;;;;;;;;;;6273790;22;20015;-88
2023/10/15 05:53:14;;;;;;;0.45;0.45;;;;;;;;;;6276872;22;20022;-89
2023/10/15 05:55:40;;;;;;;0.40;0.40;;;;;;;;;;6277010;22;20019;-90
2023/10/15 05:58:08;;;;;;;0.40;0.40;;;;;;;;;;6276057;22;20046;-90
2023/10/15 06:00:40;;;;;;;0.40;0.40;;;;;;;;;;6277819;22;20102;-90
2023/10/15 06:03:07;;;;;;;0.40;0.40;;;;;;;;;;6276956;22;20022;-90
2023/10/15 06:05:34;;;;;;;0.40;0.40;;;;;;;;;;6329233;22;20050;-89
2023/10/15 06:08:00;;;;;;;0.35;0.35;;;;;;;;;;6276335;22;20016;-90
2023/10/15 06:10:29;;;;;;;0.40;0.40;;;;;;;;;;6277286;22;20011;-90
2023/10/15 06:12:56;;;;;;;0.40;0.40;;;;;;;;;;6275870;22;20015;-90
2023/10/15 06:15:23;;;;;;;0.40;0.40;;;;;;;;;;6276851;22;20042;-90
2023/10/15 06:17:50;;;;;;;0.50;0.50;;;;;;;;;;6277193;22;20019;-90
2023/10/15 06:20:16;;;;;;;0.40;0.40;;;;;;;;;;6277989;22;20019;-89
2023/10/15 06:22:43;;;;;;;0.40;0.40;;;;;;;;;;6277921;22;20047;-91
2023/10/15 06:25:09;;;;;;;0.40;0.40;;;;;;;;;;6277854;22;20026;-90
2023/10/15 06:27:39;;;;;;;0.40;0.40;;;;;;;;;;6281109;22;20000;-91
2023/10/15 06:30:05;;;;;;;0.40;0.40;;;;;;;;;;6278710;22;20015;-91
2023/10/15 06:32:32;;;;;;;0.50;0.50;;;;;;;;;;6253293;22;20022;-91
2023/10/15 06:34:58;;;;;;;0.40;0.40;;;;;;;;;;6278489;22;20015;-90
2023/10/15 06:37:24;;;;;;;0.30;0.30;;;;;;;;;;6277769;22;20067;-91
2023/10/15 06:39:50;;;;;;;0.40;0.40;;;;;;;;;;6277263;22;20070;-89
2023/10/15 06:42:16;;;;;;;0.40;0.40;;;;;;;;;;6276553;22;20011;-90
2023/10/15 06:44:42;;;;;;;0.40;0.40;;;;;;;;;;6302270;22;20038;-90
2023/10/15 06:47:08;;;;;;;0.38;0.38;;;;;;;;;;6277122;22;20019;-90
2023/10/15 06:49:34;;;;;;;0.38;0.38;;;;;;;;;;6279524;22;20019;-91
2023/10/15 06:52:03;;;;;;;0.30;0.30;;;;;;;;;;6279889;22;20027;-90
2023/10/15 06:54:34;;;;;;;0.40;0.40;;;;;;;;;;6279655;22;20019;-90
2023/10/15 06:57:25;;;;;;;0.38;0.38;;;;;;;;;;6304002;22;20011;-90
2023/10/15 06:59:52;;;;;;;0.40;0.40;;;;;;;;;;6277420;22;20070;-89
2023/10/15 07:02:18;;;;;;;0.43;0.43;;;;;;;;;;6276757;22;20026;-86
2023/10/15 07:04:44;;;;;;;0.40;0.40;;;;;;;;;;6278982;22;20003;-91
2023/10/15 07:07:10;;;;;;;0.50;0.50;;;;;;;;;;6278698;22;20011;-90
2023/10/15 07:09:37;;;;;;;0.40;0.40;;;;;;;;;;6276397;22;20349;-89
2023/10/15 07:12:07;;;;;;;0.43;0.43;;;;;;;;;;6306505;22;20045;-91
2023/10/15 07:14:34;;;;;;;0.40;0.40;;;;;;;;;;6252410;22;20023;-90
2023/10/15 07:17:00;;;;;;;0.40;0.40;;;;;;;;;;6275333;22;20026;-92
2023/10/15 07:19:26;;;;;;;0.40;0.40;;;;;;;;;;6276671;22;20019;-91
2023/10/15 07:21:59;;;;;;;0.40;0.40;;;;;;;;;;6280433;22;20342;-90
2023/10/15 07:29:38;;;;;;;0.40;0.40;;;;;;;;;;6331308;22;20003;-91
2023/10/15 07:32:04;;;;;;;0.40;0.40;;;;;;;;;;6275776;22;20025;-89
2023/10/15 07:34:33;;;;;;;0.40;0.40;;;;;;;;;;6277512;22;20000;-90
2023/10/15 07:36:59;;;;;;;0.40;0.40;;;;;;;;;;6302977;22;20015;-90
2023/10/15 07:39:26;;;;;;;0.40;0.40;;;;;;;;;;6275908;22;20019;-89
2023/10/15 07:41:52;;;;;;;0.50;0.50;;;;;;;;;;6276286;22;20019;-89
2023/10/15 07:44:18;;;;;;;0.30;0.30;;;;;;;;;;6276585;22;20018;-91
2023/10/15 07:46:45;;;;;;;0.40;0.40;;;;;;;;;;6276180;22;20019;-91
2023/10/15 07:49:12;;;;;;;0.50;0.50;;;;;;;;;;6277787;22;20023;-88
2023/10/15 07:51:41;;;;;;;0.40;0.40;;;;;;;;;;6277110;22;20019;-90
2023/10/15 07:54:07;;;;;;;0.38;0.38;;;;;;;;;;6279196;22;20019;-91
2023/10/15 07:56:34;;;;;;;0.40;0.40;;;;;;;;;;6274426;22;20054;-91
2023/10/15 07:59:01;;;;;;;0.30;0.30;;;;;;;;;;6277149;22;20015;-91
2023/10/15 08:01:31;;;;;;;0.40;0.40;;;;;;;;;;6275772;22;20019;-90
2023/10/15 08:04:02;;;;;;;0.40;0.40;;;;;;;;;;6276016;22;20029;-91
2023/10/15 08:06:29;;;;;;;0.40;0.40;;;;;;;;;;6275436;22;20019;-90
2023/10/15 08:16:42;;;;;;;0.40;0.40;;;;;;;;;;6327460;22;20058;-90
2023/10/15 08:19:09;;;;;;;0.43;0.43;;;;;;;;;;6273932;22;20016;-91
2023/10/15 08:21:35;;;;;;;0.43;0.43;;;;;;;;;;6276532;22;20023;-89
2023/10/15 08:24:01;;;;;;;0.47;0.47;;;;;;;;;;6274979;22;20042;-89
2023/10/15 08:29:12;;;;;;;0.30;0.30;;;;;;;;;;6299926;22;20034;-89
2023/10/15 08:31:38;;;;;;;0.40;0.40;;;;;;;;;;6274815;22;20354;-89
2023/10/15 08:34:05;;;;;;;0.40;0.40;;;;;;;;;;6275273;22;19995;-90
2023/10/15 08:36:32;;;;;;;0.40;0.40;;;;;;;;;;6274594;22;20015;-91
2023/10/15 08:39:03;;;;;;;0.40;0.40;;;;;;;;;;6277041;22;20331;-90
2023/10/15 08:41:30;;;;;;;0.30;0.30;;;;;;;;;;6274266;22;20026;-89
2023/10/15 08:43:57;;;;;;;0.40;0.40;;;;;;;;;;6250572;22;20070;-90
2023/10/15 08:46:23;;;;;;;0.50;0.50;;;;;;;;;;6273519;22;20057;-90
2023/10/15 08:48:51;;;;;;;0.40;0.40;;;;;;;;;;6273916;22;20077;-88
2023/10/15 08:51:21;;;;;;;0.50;0.50;;;;;;;;;;6298556;22;20046;-88
2023/10/15 08:54:11;;;;;;;0.40;0.40;;;;;;;;;;6274928;22;20022;-91
2023/10/15 08:56:43;;;;;;;0.40;0.40;;;;;;;;;;6297466;22;20021;-90
2023/10/15 08:59:31;;;;;;;0.40;0.40;;;;;;;;;;6286515;22;20042;-90
2023/10/15 09:02:23;;;;;;;0.40;0.40;;;;;;;;;;6325569;22;20022;-88
2023/10/15 09:04:52;;;;;;;0.30;0.30;;;;;;;;;;6272603;22;20019;-89
2023/10/15 09:07:19;;;;;;;0.40;0.40;;;;;;;;;;6273027;22;20037;-89
2023/10/15 09:12:22;;;;;;;0.45;0.45;;;;;;;;;;6325749;22;20023;-88
2023/10/15 09:14:48;;;;;;;0.40;0.40;;;;;;;;;;6274790;22;20023;-89
2023/10/15 09:19:50;;;;;;;0.40;0.40;;;;;;;;;;6324260;22;20072;-89
2023/10/15 09:22:16;;;;;;;0.30;0.30;;;;;;;;;;6295756;22;20011;-90
2023/10/15 09:24:46;;;;;;;0.30;0.30;;;;;;;;;;6272429;22;20050;-88
2023/10/15 09:27:23;;;;;;;0.40;0.40;;;;;;;;;;6270752;22;20015;-89
2023/10/15 09:32:25;;;;;;;0.47;0.47;;;;;;;;;;6291549;22;20020;-89
2023/10/15 09:34:53;;;;;;;0.40;0.40;;;;;;;;;;6239566;22;20012;-88
2023/10/15 09:37:28;;;;;;;0.40;0.40;;;;;;;;;;6239408;22;20081;-86
2023/10/15 09:40:20;;;;;;;0.40;0.40;;;;;;;;;;6265982;22;20020;-89
2023/10/15 09:42:49;;;;;;;0.30;0.30;;;;;;;;;;6247058;22;20020;-88
2023/10/15 09:45:26;;;;;;;0.52;0.52;;;;;;;;;;6242809;22;20019;-88
2023/10/15 09:47:58;;;;;;;0.40;0.40;;;;;;;;;;6242256;22;20059;-89
2023/10/15 09:50:25;;;;;;;0.32;0.32;;;;;;;;;;6241226;22;20023;-89
2023/10/15 09:52:57;;;;;;;0.40;0.40;;;;;;;;;;6241839;22;20015;-88
2023/10/15 09:55:26;;;;;;;0.47;0.47;;;;;;;;;;6244933;22;20016;-89
2023/10/15 09:57:57;;;;;;;0.43;0.43;;;;;;;;;;6243901;22;20027;-88
2023/10/15 10:00:46;;;;;;;0.40;0.40;;;;;;;;;;6240947;22;20016;-88
2023/10/15 10:03:37;;;;;;;0.30;0.30;;;;;;;;;;6241566;22;20075;-89
2023/10/15 10:06:22;;;;;;;0.45;0.45;;;;;;;;;;6242349;22;20016;-89
2023/10/15 10:09:05;;;;;;;0.45;0.45;;;;;;;;;;6242785;22;20007;-89
2023/10/15 10:11:56;;;;;;;0.40;0.40;;;;;;;;;;6245786;22;20075;-91
2023/10/15 10:14:47;;;;;;;0.40;0.40;;;;;;;;;;6243452;22;20020;-88
2023/10/15 10:20:38;;;;;;;0.30;0.30;;;;;;;;;;6265821;22;20051;-89
2023/10/15 10:23:33;;;;;;;0.40;0.40;;;;;;;;;;6267578;22;20031;-89
2023/10/15 10:26:10;;;;;;;0.50;0.50;;;;;;;;;;6242743;22;20019;-90
2023/10/15 10:28:48;;;;;;;0.38;0.38;;;;;;;;;;6242280;22;20011;-88
2023/10/15 10:31:24;;;;;;;0.45;0.45;;;;;;;;;;6247867;22;20063;-89
2023/10/15 10:34:03;;;;;;;0.30;0.30;;;;;;;;;;6268943;22;20015;-88
2023/10/15 10:36:53;;;;;;;0.30;0.30;;;;;;;;;;6295275;22;20347;-89
2023/10/15 10:39:22;;;;;;;0.40;0.40;;;;;;;;;;6268841;22;20069;-90
2023/10/15 10:41:54;;;;;;;0.40;0.40;;;;;;;;;;6269114;22;20012;-89
2023/10/15 10:44:33;;;;;;;0.32;0.32;;;;;;;;;;6268156;22;20016;-90
2023/10/15 10:49:40;;;;;;;0.30;0.30;;;;;;;;;;6293575;22;20024;-90
2023/10/15 10:52:16;;;;;;;0.30;0.30;;;;;;;;;;6241069;22;20020;-90
2023/10/15 10:54:48;;;;;;;0.40;0.40;;;;;;;;;;6243858;22;20027;-92
2023/10/15 10:57:20;;;;;;;0.30;0.30;;;;;;;;;;6245296;22;20043;-91
2023/10/15 11:02:29;;;;;;;0.40;0.40;;;;;;;;;;6320132;22;19915;-88
2023/10/15 11:04:55;;;;;;;0.30;0.30;;;;;;;;;;6273715;22;20354;-90
2023/10/15 11:07:21;;;;;;;0.30;0.30;;;;;;;;;;6280868;22;20023;-88
2023/10/15 11:09:49;;;;;;;0.30;0.30;;;;;;;;;;6275074;22;20018;-90
2023/10/15 11:14:51;;;;;;;0.30;0.30;;;;;;;;;;6323983;22;20019;-89
2023/10/15 11:17:17;;;;;;;0.40;0.40;;;;;;;;;;6272056;22;20040;-89
2023/10/15 11:19:43;;;;;;;0.35;0.35;;;;;;;;;;6272449;22;20070;-89
2023/10/15 11:22:10;;;;;;;0.38;0.38;;;;;;;;;;6272782;22;20023;-90
2023/10/15 11:24:40;;;;;;;0.40;0.40;;;;;;;;;;6272940;22;20050;-90
2023/10/15 11:27:11;;;;;;;0.30;0.30;;;;;;;;;;6272580;22;20015;-88
2023/10/15 11:32:21;;;;;;;0.35;0.35;;;;;;;;;;6324081;22;20089;-89
2023/10/15 11:34:47;;;;;;;0.30;0.30;;;;;;;;;;6271673;22;20389;-89
2023/10/15 11:37:16;;;;;;;0.40;0.40;;;;;;;;;;6272893;22;20019;-89
2023/10/15 11:39:47;;;;;;;0.40;0.40;;;;;;;;;;6298085;22;20020;-90
2023/10/15 11:42:19;;;;;;;0.30;0.30;;;;;;;;;;6273952;22;20019;-89
2023/10/15 11:44:45;;;;;;;0.30;0.30;;;;;;;;;;6271615;22;20047;-89
2023/10/15 11:47:15;;;;;;;0.40;0.40;;;;;;;;;;6298000;22;20019;-89
2023/10/15 11:54:54;;;;;;;0.40;0.40;;;;;;;;;;6324524;22;20023;-88
2023/10/15 12:00:52;;;;;;;0.30;0.30;;;;;;;;;;6328515;22;20022;-87
2023/10/15 12:03:36;;;;;;;0.50;0.50;;;;;;;;;;6294964;22;20019;-90
2023/10/15 12:06:07;;;;;;;0.40;0.40;;;;;;;;;;6303605;22;20018;-87
2023/10/15 12:08:33;;;;;;;0.40;0.40;;;;;;;;;;6295997;22;20022;-87
2023/10/15 12:11:00;;;;;;;0.30;0.30;;;;;;;;;;6270567;22;20011;-88
2023/10/15 12:13:26;;;;;;;0.40;0.40;;;;;;;;;;6296000;22;20038;-87
2023/10/15 12:15:54;;;;;;;0.30;0.30;;;;;;;;;;6270133;22;20026;-89
2023/10/15 12:18:20;;;;;;;0.30;0.30;;;;;;;;;;6270079;22;20019;-88
2023/10/15 12:20:57;;;;;;;0.30;0.30;;;;;;;;;;6270256;22;20091;-88
2023/10/15 12:23:27;;;;;;;0.30;0.30;;;;;;;;;;6270125;22;20019;-88
2023/10/15 12:25:57;;;;;;;0.30;0.30;;;;;;;;;;6269707;22;20019;-88
2023/10/15 12:28:23;;;;;;;0.40;0.40;;;;;;;;;;6296245;22;20011;-89
2023/10/15 12:30:49;;;;;;;0.30;0.30;;;;;;;;;;6270038;22;20085;-89
2023/10/15 12:33:21;;;;;;;0.30;0.30;;;;;;;;;;6271361;22;20023;-88
2023/10/15 12:35:50;;;;;;;0.40;0.40;;;;;;;;;;6272235;22;20073;-89
2023/10/15 12:38:20;;;;;;;0.30;0.30;;;;;;;;;;6272795;22;20522;-90
2023/10/15 12:40:46;;;;;;;0.30;0.30;;;;;;;;;;6270840;22;20145;-86
2023/10/15 12:43:24;;;;;;;0.30;0.30;;;;;;;;;;6246389;22;20019;-87
2023/10/15 12:45:52;;;;;;;0.40;0.40;;;;;;;;;;6296521;22;20497;-87
2023/10/15 12:48:19;;;;;;;0.40;0.40;;;;;;;;;;6271407;22;20012;-88
2023/10/15 12:50:56;;;;;;;0.35;0.35;;;;;;;;;;6275326;22;20022;-86
2023/10/15 13:01:32;;;;;;;0.30;0.30;;;;;;;;;;6279139;22;20368;-89
2023/10/15 13:04:00;;;;;;;0.40;0.40;;;;;;;;;;6274396;22;20011;-89
2023/10/15 13:06:27;;;;;;;0.30;0.30;;;;;;;;;;6274465;22;20026;-88
2023/10/15 13:08:55;;;;;;;0.30;0.30;;;;;;;;;;6276275;22;20013;-89
2023/10/15 13:11:24;;;;;;;0.30;0.30;;;;;;;;;;6275720;22;20060;-91
2023/10/15 13:13:50;;;;;;;0.30;0.30;;;;;;;;;;6250829;22;20041;-90
2023/10/15 13:16:18;;;;;;;0.30;0.30;;;;;;;;;;6274988;22;20393;-90
2023/10/15 13:49:54;;;;;;;0.35;0.35;;;;;;;;;;6294819;22;20092;-89
2023/10/15 13:52:27;;;;;;;0.30;0.30;;;;;;;;;;6271997;22;20019;-90
2023/10/15 13:54:56;;;;;;;0.30;0.30;;;;;;;;;;6245507;22;20018;-89
2023/10/15 13:57:25;;;;;;;0.40;0.40;;;;;;;;;;6270359;22;20039;-91
2023/10/15 13:59:55;;;;;;;0.30;0.30;;;;;;;;;;6269479;22;20039;-91
2023/10/15 14:02:21;;;;;;;0.32;0.32;;;;;;;;;;6267561;22;20085;-90
2023/10/15 14:04:47;;;;;;;0.30;0.30;;;;;;;;;;6269825;22;20015;-91
2023/10/15 14:07:23;;;;;;;0.40;0.40;;;;;;;;;;6271000;22;20042;-89
2023/10/15 14:09:49;;;;;;;0.22;0.22;;;;;;;;;;6270954;22;20020;-92
2023/10/15 14:12:15;;;;;;;0.40;0.40;;;;;;;;;;6271109;22;20051;-90
2023/10/15 14:14:41;;;;;;;0.30;0.30;;;;;;;;;;6271453;22;20024;-90
2023/10/15 14:17:08;;;;;;;0.40;0.40;;;;;;;;;;6270113;22;20016;-90
2023/10/15 14:22:10;;;;;;;0.30;0.30;;;;;;;;;;6266234;22;20032;-90
2023/10/15 14:24:36;;;;;;;0.30;0.30;;;;;;;;;;6215085;23;20414;-90
2023/10/15 14:27:03;;;;;;;0.30;0.30;;;;;;;;;;6213946;23;20017;-92
2023/10/15 14:29:29;;;;;;;0.30;0.30;;;;;;;;;;6214011;23;20007;-91
2023/10/15 14:31:55;;;;;;;0.30;0.30;;;;;;;;;;6213332;23;20040;-89
2023/10/15 14:34:21;;;;;;;0.30;0.30;;;;;;;;;;6214066;23;20023;-91
2023/10/15 14:36:48;;;;;;;0.30;0.30;;;;;;;;;;6238578;23;20016;-90
2023/10/15 14:39:17;;;;;;;0.30;0.30;;;;;;;;;;6212879;23;20027;-88
2023/10/15 14:41:45;;;;;;;0.30;0.30;;;;;;;;;;6211806;23;20020;-88
2023/10/15 14:44:11;;;;;;;0.40;0.40;;;;;;;;;;6211944;23;20020;-89
2023/10/15 14:46:41;;;;;;;0.30;0.30;;;;;;;;;;6212662;23;20066;-88
2023/10/15 14:49:11;;;;;;;0.32;0.32;;;;;;;;;;6212103;23;20023;-89
2023/10/15 14:51:37;;;;;;;0.30;0.30;;;;;;;;;;6210266;23;20012;-89
2023/10/15 14:54:05;;;;;;;0.35;0.35;;;;;;;;;;6211768;23;20026;-90
2023/10/15 14:56:32;;;;;;;0.30;0.30;;;;;;;;;;6211140;23;20020;-89
2023/10/15 14:58:59;;;;;;;0.20;0.20;;;;;;;;;;6211516;23;20020;-90
2023/10/15 15:01:30;;;;;;;0.35;0.35;;;;;;;;;;6211872;23;20046;-88
2023/10/15 15:03:58;;;;;;;0.30;0.30;;;;;;;;;;6212241;23;20016;-90
2023/10/15 15:06:24;;;;;;;0.30;0.30;;;;;;;;;;6212465;23;20020;-91
2023/10/15 15:08:51;;;;;;;0.30;0.30;;;;;;;;;;6212301;23;20066;-90
2023/10/15 15:11:17;;;;;;;0.30;0.30;;;;;;;;;;6213781;23;20051;-90
2023/10/15 15:14:08;;;;;;;0.30;0.30;;;;;;;;;;6213117;23;20347;-88
2023/10/15 15:16:34;;;;;;;0.30;0.30;;;;;;;;;;6212766;23;20056;-88
2023/10/15 15:19:00;;;;;;;0.40;0.40;;;;;;;;;;6213009;23;20070;-89
2023/10/15 15:21:26;;;;;;;0.30;0.30;;;;;;;;;;6247715;22;20004;-90
2023/10/15 15:23:52;;;;;;;0.30;0.30;;;;;;;;;;6268813;22;20057;-91
2023/10/15 15:26:19;;;;;;;0.30;0.30;;;;;;;;;;6268266;22;20538;-91
2023/10/15 15:28:45;;;;;;;0.30;0.30;;;;;;;;;;6267376;22;20016;-90
2023/10/15 15:31:11;;;;;;;0.30;0.30;;;;;;;;;;6267897;22;20024;-91
2023/10/15 15:33:37;;;;;;;0.30;0.30;;;;;;;;;;6292167;22;20019;-88
2023/10/15 15:36:04;;;;;;;0.30;0.30;;;;;;;;;;6267646;22;20043;-89
2023/10/15 15:38:30;;;;;;;0.30;0.30;;;;;;;;;;6267025;22;20046;-90
2023/10/15 15:41:06;;;;;;;0.20;0.20;;;;;;;;;;6266528;22;20042;-90
2023/10/15 15:43:33;;;;;;;0.30;0.30;;;;;;;;;;6267115;22;20019;-91
2023/10/15 15:46:00;;;;;;;0.30;0.30;;;;;;;;;;6293352;22;20020;-90
2023/10/15 15:48:28;;;;;;;0.30;0.30;;;;;;;;;;6265965;22;20016;-90
2023/10/15 15:51:12;;;;;;;0.40;0.40;;;;;;;;;;6267320;22;20037;-88
2023/10/15 15:53:38;;;;;;;0.30;0.30;;;;;;;;;;6267149;22;20016;-90
2023/10/15 15:56:08;;;;;;;0.40;0.40;;;;;;;;;;6268581;22;20015;-90
2023/10/15 15:58:34;;;;;;;0.40;0.40;;;;;;;;;;6264457;22;20022;-87
2023/10/15 16:01:01;;;;;;;0.30;0.30;;;;;;;;;;6259392;22;20023;-87
2023/10/15 16:03:28;;;;;;;0.32;0.32;;;;;;;;;;6261084;22;20022;-87
2023/10/15 16:06:03;;;;;;;0.30;0.30;;;;;;;;;;6261604;22;20015;-88
2023/10/15 16:08:37;;;;;;;0.40;0.40;;;;;;;;;;6285476;22;20016;-88
2023/10/15 16:11:04;;;;;;;0.40;0.40;;;;;;;;;;6261062;22;20034;-87
2023/10/15 16:13:30;;;;;;;0.40;0.40;;;;;;;;;;6261263;22;20015;-86
2023/10/15 16:15:56;;;;;;;0.30;0.30;;;;;;;;;;6261071;22;20071;-88
2023/10/15 16:18:22;;;;;;;0.20;0.20;;;;;;;;;;6265917;22;20034;-87
2023/10/15 16:20:51;;;;;;;0.40;0.40;;;;;;;;;;6261077;22;20027;-85
2023/10/15 16:23:17;;;;;;;0.30;0.30;;;;;;;;;;6286107;22;20437;-87
2023/10/15 16:25:51;;;;;;;0.30;0.30;;;;;;;;;;6260454;22;20071;-87
2023/10/15 16:28:20;;;;;;;0.30;0.30;;;;;;;;;;6265853;22;20023;-90
2023/10/15 16:30:47;;;;;;;0.40;0.40;;;;;;;;;;6267986;22;20061;-90
2023/10/15 16:33:14;;;;;;;0.40;0.40;;;;;;;;;;6268335;22;20016;-90
2023/10/15 16:35:44;;;;;;;0.30;0.30;;;;;;;;;;6293601;22;20020;-90
2023/10/15 16:38:22;;;;;;;0.40;0.40;;;;;;;;;;6269579;22;20020;-90
2023/10/15 16:41:05;;;;;;;0.40;0.40;;;;;;;;;;6269773;22;20047;-90